createdAt,value
2018-01-10T00:02:05.383Z,19.85
2018-01-10T00:04:31.983Z,19.86
2018-01-10T00:06:58.251Z,19.84
2018-01-10T00:09:24.517Z,19.85
2018-01-10T00:11:50.759Z,19.86
2018-01-10T00:14:16.996Z,19.86
2018-01-10T00:16:43.256Z,19.87
2018-01-10T00:19:09.513Z,19.89
2018-01-10T00:21:35.772Z,19.82
2018-01-10T00:24:02.039Z,19.68
2018-01-10T00:26:28.319Z,19.58
2018-01-10T00:28:54.579Z,19.51
2018-01-10T00:31:20.840Z,19.46
2018-01-10T00:33:47.096Z,19.46
2018-01-10T00:36:13.351Z,19.40
2018-01-10T00:38:40.329Z,19.34
2018-01-10T00:41:06.564Z,19.32
2018-01-10T00:43:32.807Z,19.28
2018-01-10T00:45:59.045Z,19.28
2018-01-10T00:48:25.295Z,19.25
2018-01-10T00:50:51.542Z,19.26
2018-01-10T00:53:17.783Z,19.22
2018-01-10T00:55:44.021Z,19.20
2018-01-10T00:58:10.262Z,19.18
2018-01-10T01:00:37.255Z,19.11
2018-01-10T01:03:03.497Z,19.07
2018-01-10T01:05:29.776Z,19.04
2018-01-10T01:07:56.016Z,19.00
2018-01-10T01:10:23.003Z,18.97
2018-01-10T01:12:49.242Z,18.95
2018-01-10T01:15:15.492Z,18.92
2018-01-10T01:17:41.740Z,18.91
2018-01-10T01:20:08.001Z,18.91
2018-01-10T01:22:34.240Z,18.89
2018-01-10T01:25:01.658Z,18.86
2018-01-10T01:27:27.909Z,18.84
2018-01-10T01:29:54.172Z,18.83
2018-01-10T01:32:21.178Z,18.82
2018-01-10T01:34:47.424Z,18.81
2018-01-10T01:37:13.665Z,18.78
2018-01-10T01:39:39.913Z,18.77
2018-01-10T01:42:06.153Z,18.76
2018-01-10T01:44:32.418Z,18.77
2018-01-10T01:46:58.664Z,18.73
2018-01-10T01:49:25.138Z,18.71
2018-01-10T01:51:51.372Z,18.72
2018-01-10T01:54:17.614Z,18.72
2018-01-10T01:56:43.865Z,18.70
2018-01-10T01:59:10.126Z,18.70
2018-01-10T02:01:37.231Z,18.68
2018-01-10T02:04:03.489Z,18.66
2018-01-10T02:06:29.740Z,18.66
2018-01-10T02:08:56.724Z,18.64
2018-01-10T02:11:22.979Z,18.63
2018-01-10T02:13:49.227Z,18.65
2018-01-10T02:16:15.464Z,18.63
2018-01-10T02:18:41.716Z,18.62
2018-01-10T02:21:07.961Z,18.58
2018-01-10T02:23:34.943Z,18.57
2018-01-10T02:26:01.184Z,18.54
2018-01-10T02:28:27.464Z,18.55
2018-01-10T02:30:53.717Z,18.53
2018-01-10T02:33:20.710Z,18.51
2018-01-10T02:35:46.968Z,18.51
2018-01-10T02:38:13.212Z,18.53
2018-01-10T02:40:39.461Z,18.52
2018-01-10T02:43:06.448Z,18.51
2018-01-10T02:45:32.700Z,18.48
2018-01-10T02:47:58.947Z,18.49
2018-01-10T02:50:25.198Z,18.49
2018-01-10T02:52:51.440Z,18.49
2018-01-10T02:55:17.682Z,18.47
2018-01-10T02:57:43.917Z,18.46
2018-01-10T03:00:10.188Z,18.45
2018-01-10T03:02:36.436Z,18.42
2018-01-10T03:05:02.696Z,18.42
2018-01-10T03:07:28.967Z,18.43
2018-01-10T03:09:55.964Z,18.40
2018-01-10T03:12:22.220Z,18.36
2018-01-10T03:14:48.493Z,18.33
2018-01-10T03:17:15.482Z,18.36
2018-01-10T03:19:41.748Z,18.35
2018-01-10T03:22:07.991Z,18.36
2018-01-10T03:24:34.640Z,18.37
2018-01-10T03:27:01.384Z,18.34
2018-01-10T03:29:27.631Z,18.33
2018-01-10T03:31:54.630Z,18.32
2018-01-10T03:34:20.881Z,18.32
2018-01-10T03:36:47.120Z,18.34
2018-01-10T03:39:13.362Z,18.35
2018-01-10T03:41:39.621Z,18.32
2018-01-10T03:44:06.614Z,18.27
2018-01-10T03:46:32.858Z,18.27
2018-01-10T03:48:59.107Z,18.24
2018-01-10T03:51:25.347Z,18.28
2018-01-10T03:53:51.636Z,18.28
2018-01-10T03:56:17.891Z,18.26
2018-01-10T03:58:44.148Z,18.26
2018-01-10T04:01:10.397Z,18.23
2018-01-10T04:03:36.638Z,18.24
2018-01-10T04:06:03.647Z,18.25
2018-01-10T04:08:29.905Z,18.22
2018-01-10T04:10:56.156Z,18.20
2018-01-10T04:13:22.396Z,18.18
2018-01-10T04:15:49.397Z,18.18
2018-01-10T04:18:15.630Z,18.20
2018-01-10T04:20:41.869Z,18.19
2018-01-10T04:23:08.116Z,18.17
2018-01-10T04:25:34.373Z,18.20
2018-01-10T04:28:00.628Z,18.20
2018-01-10T04:30:27.624Z,18.19
2018-01-10T04:32:53.879Z,18.17
2018-01-10T04:35:20.121Z,18.19
2018-01-10T04:37:46.383Z,18.17
2018-01-10T04:40:13.374Z,18.17
2018-01-10T04:42:39.666Z,18.14
2018-01-10T04:45:05.892Z,18.14
2018-01-10T04:47:32.900Z,18.12
2018-01-10T04:49:59.145Z,18.13
2018-01-10T04:52:25.383Z,18.16
2018-01-10T04:54:51.624Z,18.11
2018-01-10T04:57:17.899Z,18.13
2018-01-10T04:59:44.149Z,18.12
2018-01-10T05:02:10.396Z,18.11
2018-01-10T05:04:36.681Z,18.11
2018-01-10T05:07:02.923Z,18.09
2018-01-10T05:09:29.915Z,18.11
2018-01-10T05:11:56.169Z,18.10
2018-01-10T05:14:22.408Z,18.09
2018-01-10T05:16:48.652Z,18.07
2018-01-10T05:19:15.201Z,18.07
2018-01-10T05:21:41.469Z,18.06
2018-01-10T05:24:07.712Z,18.03
2018-01-10T05:26:33.965Z,18.02
2018-01-10T05:29:00.218Z,17.99
2018-01-10T05:31:26.496Z,18.03
2018-01-10T05:33:53.493Z,18.05
2018-01-10T05:36:19.762Z,18.03
2018-01-10T05:38:45.996Z,18.02
2018-01-10T05:41:12.239Z,18.05
2018-01-10T05:43:38.689Z,18.02
2018-01-10T05:46:05.688Z,18.05
2018-01-10T05:48:31.941Z,18.04
2018-01-10T05:50:58.215Z,18.03
2018-01-10T05:53:25.212Z,17.99
2018-01-10T05:55:51.481Z,18.00
2018-01-10T05:58:17.727Z,18.01
2018-01-10T06:00:44.721Z,17.99
2018-01-10T06:03:10.964Z,18.00
2018-01-10T06:05:37.232Z,17.97
2018-01-10T06:08:03.495Z,18.00
2018-01-10T06:10:29.783Z,17.97
2018-01-10T06:12:56.020Z,17.96
2018-01-10T06:15:22.600Z,17.95
2018-01-10T06:17:49.605Z,17.97
2018-01-10T06:20:15.896Z,17.98
2018-01-10T06:22:42.864Z,18.06
2018-01-10T06:25:09.114Z,18.18
2018-01-10T06:27:35.378Z,18.24
2018-01-10T06:30:01.635Z,18.39
2018-01-10T06:32:28.612Z,18.52
2018-01-10T06:34:54.847Z,18.62
2018-01-10T06:37:21.081Z,18.69
2018-01-10T06:39:47.328Z,18.76
2018-01-10T06:42:13.577Z,18.90
2018-01-10T06:44:39.865Z,18.76
2018-01-10T06:47:06.860Z,18.79
2018-01-10T06:49:33.096Z,18.87
2018-01-10T06:51:59.359Z,18.95
2018-01-10T06:54:25.592Z,18.96
2018-01-10T06:56:51.865Z,18.91
2018-01-10T06:59:18.108Z,18.92
2018-01-10T07:01:44.349Z,19.04
2018-01-10T07:04:10.596Z,19.01
2018-01-10T07:06:36.843Z,18.88
2018-01-10T07:09:03.171Z,18.89
2018-01-10T07:11:29.427Z,18.88
2018-01-10T07:13:55.672Z,19.08
2018-01-10T07:16:21.920Z,19.20
2018-01-10T07:18:48.911Z,19.18
2018-01-10T07:21:15.152Z,19.19
2018-01-10T07:23:41.404Z,19.21
2018-01-10T07:26:07.677Z,19.18
2018-01-10T07:28:34.673Z,19.13
2018-01-10T07:31:00.948Z,19.09
2018-01-10T07:33:27.211Z,19.04
2018-01-10T07:35:53.498Z,19.03
2018-01-10T07:38:19.733Z,19.03
2018-01-10T07:40:45.998Z,19.03
2018-01-10T07:43:12.997Z,19.03
2018-01-10T07:45:39.252Z,19.05
2018-01-10T07:48:05.504Z,19.02
2018-01-10T07:50:31.751Z,18.95
2018-01-10T07:52:58.009Z,18.90
2018-01-10T07:55:24.660Z,19.03
2018-01-10T07:57:50.956Z,19.13
2018-01-10T08:00:17.259Z,19.18
2018-01-10T08:02:43.517Z,19.25
2018-01-10T08:05:09.772Z,19.39
2018-01-10T08:07:36.030Z,19.52
2018-01-10T08:10:02.283Z,19.59
2018-01-10T08:12:28.537Z,19.59
2018-01-10T08:14:54.818Z,19.64
2018-01-10T08:17:21.055Z,19.66
2018-01-10T08:19:48.053Z,19.68
2018-01-10T08:22:14.306Z,19.63
2018-01-10T08:24:40.566Z,19.58
2018-01-10T08:27:06.825Z,19.58
2018-01-10T08:29:33.076Z,19.51
2018-01-10T08:31:59.333Z,19.47
2018-01-10T08:34:25.606Z,19.48
2018-01-10T08:36:52.607Z,19.48
2018-01-10T08:39:18.867Z,19.49
2018-01-10T08:41:45.168Z,19.41
2018-01-10T08:44:11.427Z,19.41
2018-01-10T08:46:37.686Z,19.42
2018-01-10T08:49:04.059Z,19.39
2018-01-10T08:51:30.325Z,19.35
2018-01-10T08:53:56.581Z,19.35
2018-01-10T08:56:22.828Z,19.39
2018-01-10T08:58:49.084Z,19.50
2018-01-10T09:01:15.347Z,19.55
2018-01-10T09:03:41.616Z,19.56
2018-01-10T09:06:07.864Z,19.60
2018-01-10T09:08:34.110Z,19.64
2018-01-10T09:11:01.105Z,19.64
2018-01-10T09:13:27.377Z,19.65
2018-01-10T09:15:53.616Z,19.71
2018-01-10T09:18:19.869Z,19.68
2018-01-10T09:20:46.873Z,19.60
2018-01-10T09:23:13.156Z,19.56
2018-01-10T09:25:40.145Z,19.52
2018-01-10T09:28:06.404Z,19.46
2018-01-10T09:30:32.665Z,19.43
2018-01-10T09:32:58.925Z,19.43
2018-01-10T09:35:25.189Z,19.40
2018-01-10T09:37:51.455Z,19.40
2018-01-10T09:40:17.709Z,19.44
2018-01-10T09:42:43.969Z,19.45
2018-01-10T09:45:10.222Z,19.46
2018-01-10T09:47:36.476Z,19.49
2018-01-10T09:50:02.712Z,19.54
2018-01-10T09:52:28.982Z,19.53
2018-01-10T09:54:55.244Z,19.51
2018-01-10T09:57:21.521Z,19.50
2018-01-10T09:59:47.760Z,19.49
2018-01-10T10:02:14.028Z,19.49
2018-01-10T10:04:41.031Z,19.51
2018-01-10T10:07:07.324Z,19.52
2018-01-10T10:09:34.330Z,19.52
2018-01-10T10:12:00.607Z,19.53
2018-01-10T10:14:27.602Z,19.53
2018-01-10T10:16:53.848Z,19.54
2018-01-10T10:19:20.126Z,19.56
2018-01-10T10:21:47.113Z,19.53
2018-01-10T10:24:13.370Z,19.55
2018-01-10T10:26:39.636Z,19.56
2018-01-10T10:29:06.637Z,19.54
2018-01-10T10:31:32.895Z,19.52
2018-01-10T10:33:59.148Z,19.54
2018-01-10T10:36:25.406Z,19.66
2018-01-10T10:38:52.403Z,19.64
2018-01-10T10:41:18.649Z,19.67
2018-01-10T10:43:44.892Z,19.72
2018-01-10T10:46:11.145Z,19.75
2018-01-10T10:48:38.154Z,19.77
2018-01-10T10:51:04.453Z,19.81
2018-01-10T10:53:30.702Z,19.85
2018-01-10T10:55:56.943Z,19.76
2018-01-10T10:58:23.192Z,19.72
2018-01-10T11:00:49.452Z,19.68
2018-01-10T11:03:15.748Z,19.65
2018-01-10T11:05:41.995Z,19.64
2018-01-10T11:08:08.283Z,19.59
2018-01-10T11:10:35.274Z,19.53
2018-01-10T11:13:01.531Z,19.63
2018-01-10T11:15:27.785Z,19.87
2018-01-10T11:17:54.028Z,20.08
2018-01-10T11:20:20.278Z,19.92
2018-01-10T11:22:47.273Z,19.66
2018-01-10T11:25:13.516Z,19.56
2018-01-10T11:27:39.839Z,19.67
2018-01-10T11:30:06.089Z,19.64
2018-01-10T11:32:32.353Z,19.76
2018-01-10T11:34:59.352Z,20.05
2018-01-10T11:37:25.609Z,20.30
2018-01-10T11:39:51.867Z,20.48
2018-01-10T11:42:18.114Z,20.56
2018-01-10T11:44:45.096Z,20.62
2018-01-10T11:47:11.354Z,20.69
2018-01-10T11:49:37.603Z,20.71
2018-01-10T11:52:03.845Z,20.56
2018-01-10T11:54:30.092Z,20.48
2018-01-10T11:56:56.357Z,20.44
2018-01-10T11:59:22.623Z,20.38
2018-01-10T12:01:48.898Z,20.27
2018-01-10T12:04:15.156Z,20.23
2018-01-10T12:06:41.422Z,20.19
2018-01-10T12:09:07.652Z,20.11
2018-01-10T12:11:33.890Z,20.01
2018-01-10T12:14:00.169Z,19.91
2018-01-10T12:16:26.426Z,19.83
2018-01-10T12:18:53.425Z,19.79
2018-01-10T12:21:19.726Z,19.84
2018-01-10T12:23:45.986Z,19.82
2018-01-10T12:26:12.254Z,19.81
2018-01-10T12:28:38.525Z,19.78
2018-01-10T12:31:04.793Z,19.63
2018-01-10T12:33:31.052Z,19.71
2018-01-10T12:35:57.318Z,19.60
2018-01-10T12:38:24.311Z,19.58
2018-01-10T12:40:50.565Z,19.55
2018-01-10T12:43:16.856Z,19.50
2018-01-10T12:45:43.107Z,19.33
2018-01-10T12:48:09.376Z,19.38
2018-01-10T12:50:35.657Z,19.22
2018-01-10T12:53:01.914Z,19.25
2018-01-10T12:55:28.166Z,19.38
2018-01-10T12:57:54.439Z,19.46
2018-01-10T13:00:21.648Z,19.53
2018-01-10T13:02:47.901Z,19.57
2018-01-10T13:05:14.180Z,19.59
2018-01-10T13:07:41.211Z,19.69
2018-01-10T13:10:08.216Z,19.72
2018-01-10T13:12:34.484Z,19.67
2018-01-10T13:15:00.763Z,19.64
2018-01-10T13:17:27.013Z,19.56
2018-01-10T13:19:53.282Z,19.55
2018-01-10T13:22:19.556Z,19.57
2018-01-10T13:24:46.549Z,19.50
2018-01-10T13:27:12.816Z,19.56
2018-01-10T13:29:39.080Z,19.49
2018-01-10T13:32:05.354Z,19.47
2018-01-10T13:34:31.629Z,19.46
2018-01-10T13:36:58.620Z,19.42
2018-01-10T13:39:24.874Z,19.38
2018-01-10T13:41:51.151Z,19.38
2018-01-10T13:44:18.168Z,19.38
2018-01-10T13:46:44.420Z,19.36
2018-01-10T13:49:10.655Z,19.38
2018-01-10T13:51:36.911Z,19.34
2018-01-10T13:54:03.907Z,19.37
2018-01-10T13:56:30.149Z,19.33
2018-01-10T13:58:56.419Z,19.33
2018-01-10T14:01:22.673Z,19.30
2018-01-10T14:03:49.690Z,19.34
2018-01-10T14:06:15.951Z,19.34
2018-01-10T14:08:42.961Z,19.36
2018-01-10T14:11:09.205Z,19.30
2018-01-10T14:13:35.458Z,19.24
2018-01-10T14:16:01.714Z,19.23
2018-01-10T14:18:28.835Z,19.27
2018-01-10T14:20:55.112Z,19.26
2018-01-10T14:23:21.400Z,19.30
2018-01-10T14:25:47.665Z,19.33
2018-01-10T14:28:14.705Z,19.36
2018-01-10T14:30:40.960Z,19.36
2018-01-10T14:33:07.986Z,19.38
2018-01-10T14:35:34.302Z,19.38
2018-01-10T14:38:00.565Z,19.38
2018-01-10T14:40:26.820Z,19.36
2018-01-10T14:42:53.862Z,19.35
2018-01-10T14:45:20.109Z,19.36
2018-01-10T14:47:46.376Z,19.34
2018-01-10T14:50:12.664Z,19.31
2018-01-10T14:52:39.665Z,19.29
2018-01-10T14:55:06.267Z,19.27
2018-01-10T14:57:32.540Z,19.25
2018-01-10T14:59:58.804Z,19.25
2018-01-10T15:02:25.102Z,19.32
2018-01-10T15:04:51.360Z,19.30
2018-01-10T15:07:17.672Z,19.35
2018-01-10T15:09:43.989Z,19.34
2018-01-10T15:12:10.236Z,19.48
2018-01-10T15:14:36.487Z,19.61
2018-01-10T15:17:02.761Z,19.75
2018-01-10T15:19:29.063Z,19.81
2018-01-10T15:21:55.320Z,19.87
2018-01-10T15:24:21.598Z,19.93
2018-01-10T15:26:47.863Z,20.01
2018-01-10T15:29:14.121Z,20.09
2018-01-10T15:31:40.413Z,20.13
2018-01-10T15:34:07.396Z,20.19
2018-01-10T15:36:33.685Z,20.22
2018-01-10T15:39:00.751Z,20.26
2018-01-10T15:41:27.064Z,20.27
2018-01-10T15:43:53.297Z,20.32
2018-01-10T15:46:20.345Z,20.35
2018-01-10T15:48:47.353Z,20.41
2018-01-10T15:51:13.653Z,20.44
2018-01-10T15:53:39.946Z,20.47
2018-01-10T15:56:06.231Z,20.51
2018-01-10T15:58:32.555Z,20.54
2018-01-10T16:00:59.272Z,20.57
2018-01-10T16:03:25.539Z,20.50
2018-01-10T16:05:51.817Z,20.47
2018-01-10T16:08:18.092Z,20.49
2018-01-10T16:10:45.101Z,20.45
2018-01-10T16:13:11.370Z,20.33
2018-01-10T16:15:37.648Z,20.46
2018-01-10T16:18:03.912Z,20.52
2018-01-10T16:20:30.183Z,20.59
2018-01-10T16:22:57.217Z,20.57
2018-01-10T16:25:23.490Z,20.56
2018-01-10T16:27:49.783Z,20.54
2018-01-10T16:30:16.061Z,20.50
2018-01-10T16:32:42.315Z,20.57
2018-01-10T16:35:08.650Z,20.60
2018-01-10T16:37:34.936Z,20.58
2018-01-10T16:40:01.693Z,20.54
2018-01-10T16:42:28.720Z,20.56
2018-01-10T16:44:55.032Z,20.41
2018-01-10T16:47:21.310Z,19.99
2018-01-10T16:49:47.622Z,19.75
2018-01-10T16:52:13.928Z,19.59
2018-01-10T16:54:40.192Z,19.48
2018-01-10T16:57:06.505Z,19.47
2018-01-10T16:59:32.898Z,19.39
2018-01-10T17:01:59.949Z,19.71
2018-01-10T17:04:26.977Z,19.92
2018-01-10T17:06:53.280Z,19.86
2018-01-10T17:09:19.539Z,19.85
2018-01-10T17:11:45.800Z,19.91
2018-01-10T17:14:12.081Z,19.95
2018-01-10T17:16:38.431Z,19.94
2018-01-10T17:19:05.072Z,19.94
2018-01-10T17:21:32.172Z,19.98
2018-01-10T17:23:59.197Z,19.89
2018-01-10T17:26:25.462Z,19.85
2018-01-10T17:28:52.516Z,19.77
2018-01-10T17:31:19.536Z,19.77
2018-01-10T17:33:45.823Z,19.62
2018-01-10T17:36:12.093Z,19.54
2018-01-10T17:38:38.391Z,19.69
2018-01-10T17:41:04.691Z,19.77
2018-01-10T17:43:31.001Z,19.83
2018-01-10T17:45:57.307Z,19.86
2018-01-10T17:48:23.588Z,19.86
2018-01-10T17:50:49.899Z,19.88
2018-01-10T17:53:16.281Z,19.91
2018-01-10T17:55:43.324Z,19.96
2018-01-10T17:58:09.601Z,19.97
2018-01-10T18:00:35.912Z,19.98
2018-01-10T18:03:03.238Z,19.96
2018-01-10T18:05:29.576Z,19.86
2018-01-10T18:07:56.593Z,19.72
2018-01-10T18:10:22.848Z,19.70
2018-01-10T18:12:49.150Z,19.67
2018-01-10T18:15:15.428Z,19.78
2018-01-10T18:17:41.770Z,19.73
2018-01-10T18:20:08.107Z,19.49
2018-01-10T18:22:34.366Z,19.40
2018-01-10T18:25:01.394Z,19.38
2018-01-10T18:27:27.683Z,19.49
2018-01-10T18:29:53.954Z,19.46
2018-01-10T18:32:20.271Z,19.40
2018-01-10T18:34:46.585Z,19.41
2018-01-10T18:37:12.879Z,19.41
2018-01-10T18:39:39.164Z,19.43
2018-01-10T18:42:05.470Z,19.41
2018-01-10T18:44:32.498Z,19.45
2018-01-10T18:46:58.862Z,19.46
2018-01-10T18:49:25.930Z,19.43
2018-01-10T18:51:52.217Z,19.40
2018-01-10T18:54:18.524Z,19.39
2018-01-10T18:56:44.833Z,19.34
2018-01-10T18:59:11.091Z,19.32
2018-01-10T19:01:37.380Z,19.28
2018-01-10T19:04:03.764Z,19.25
2018-01-10T19:06:30.050Z,19.21
2018-01-10T19:08:56.404Z,19.21
2018-01-10T19:11:23.477Z,19.16
2018-01-10T19:29:49.565Z,18.87
2018-01-10T19:32:16.605Z,18.94
2018-01-10T19:34:42.916Z,18.93
2018-01-10T19:37:09.192Z,19.00
2018-01-10T19:39:36.202Z,19.19
2018-01-10T19:42:02.835Z,19.45
2018-01-10T19:44:29.169Z,19.68
2018-01-10T19:46:55.451Z,19.82
2018-01-10T19:49:21.736Z,19.93
2018-01-10T19:51:48.058Z,20.02
2018-01-10T19:54:14.338Z,20.01
2018-01-10T19:56:40.615Z,20.06
2018-01-10T19:59:06.900Z,20.06
2018-01-10T20:01:33.172Z,20.06
2018-01-10T20:04:00.203Z,20.04
2018-01-10T20:06:26.485Z,20.00
2018-01-10T20:08:52.792Z,19.93
2018-01-10T20:11:19.836Z,19.86
2018-01-10T20:13:46.145Z,19.76
2018-01-10T20:16:12.453Z,19.73
2018-01-10T20:18:38.751Z,19.62
2018-01-10T20:21:05.787Z,19.56
2018-01-10T20:23:32.125Z,19.51
2018-01-10T20:25:58.427Z,19.44
2018-01-10T20:28:24.740Z,19.40
2018-01-10T20:30:50.997Z,19.37
2018-01-10T20:33:17.341Z,19.35
2018-01-10T20:35:43.608Z,19.31
2018-01-10T20:38:09.893Z,19.28
2018-01-10T20:40:36.177Z,19.25
2018-01-10T20:43:02.441Z,19.24
2018-01-10T20:45:28.716Z,19.23
2018-01-10T20:47:54.983Z,19.20
2018-01-10T20:50:21.281Z,19.17
2018-01-10T20:52:47.702Z,19.14
2018-01-10T20:55:13.998Z,19.13
2018-01-10T20:57:41.033Z,19.11
2018-01-10T21:00:07.330Z,19.09
2018-01-10T21:02:33.612Z,19.07
2018-01-10T21:04:59.873Z,19.08
2018-01-10T21:07:26.195Z,19.07
2018-01-10T21:09:53.292Z,19.06
2018-01-10T21:12:19.566Z,19.08
2018-01-10T21:14:45.853Z,19.16
2018-01-10T21:17:12.107Z,19.09
2018-01-10T21:19:38.384Z,19.05
2018-01-10T21:22:04.660Z,19.03
2018-01-10T21:24:30.929Z,19.08
2018-01-10T21:26:57.212Z,19.11
2018-01-10T21:29:23.494Z,19.09
2018-01-10T21:31:49.795Z,19.11
2018-01-10T21:34:16.085Z,19.08
2018-01-10T21:36:42.378Z,19.09
2018-01-10T21:39:08.675Z,19.10
2018-01-10T21:41:36.047Z,19.07
2018-01-10T21:44:02.327Z,19.05
2018-01-10T21:46:28.592Z,19.04
2018-01-10T21:48:54.912Z,19.01
2018-01-10T21:51:21.259Z,18.99
2018-01-10T21:53:47.537Z,18.98
2018-01-10T21:56:13.866Z,18.94
2018-01-10T21:58:40.143Z,18.92
2018-01-10T22:01:06.451Z,18.89
2018-01-10T22:03:32.774Z,18.89
2018-01-10T22:05:59.755Z,18.89
2018-01-10T22:08:26.066Z,18.89
2018-01-10T22:10:52.342Z,18.88
2018-01-10T22:13:18.616Z,18.87
2018-01-10T22:15:45.665Z,18.87
2018-01-10T22:18:12.668Z,18.85
2018-01-10T22:20:38.940Z,18.84
2018-01-10T22:23:05.213Z,18.84
2018-01-10T22:25:31.536Z,18.84
2018-01-10T22:27:57.870Z,18.84
2018-01-10T22:30:24.144Z,18.85
2018-01-10T22:32:50.412Z,18.83
2018-01-10T22:35:16.685Z,18.80
2018-01-10T22:37:42.976Z,18.81
2018-01-10T22:40:09.264Z,18.80
2018-01-10T22:42:35.534Z,18.80
2018-01-10T22:45:01.779Z,18.80
2018-01-10T22:47:28.050Z,18.78
2018-01-10T22:49:54.339Z,18.77
2018-01-10T22:52:20.655Z,18.77
2018-01-10T22:54:46.908Z,18.79
2018-01-10T22:57:13.207Z,18.78
2018-01-10T22:59:39.474Z,18.77
2018-01-10T23:02:05.739Z,18.76
2018-01-10T23:04:32.788Z,18.73
2018-01-10T23:06:59.053Z,18.73
2018-01-10T23:09:25.346Z,18.73
2018-01-10T23:11:51.651Z,18.72
2018-01-10T23:14:17.904Z,18.71
2018-01-10T23:16:44.181Z,18.70
2018-01-10T23:19:11.190Z,18.69
2018-01-10T23:21:37.459Z,18.71
2018-01-10T23:24:04.454Z,18.72
2018-01-10T23:26:30.725Z,18.66
2018-01-10T23:28:56.996Z,18.67
2018-01-10T23:31:23.295Z,18.66
2018-01-10T23:33:49.590Z,18.63
2018-01-10T23:36:15.846Z,18.61
2018-01-10T23:38:42.132Z,18.59
2018-01-10T23:41:08.400Z,18.58
2018-01-10T23:43:34.661Z,18.60
2018-01-10T23:46:00.924Z,18.60
2018-01-10T23:48:27.943Z,18.59
2018-01-10T23:50:54.188Z,18.60
2018-01-10T23:53:20.472Z,18.61
2018-01-10T23:55:46.716Z,18.60
2018-01-10T23:58:13.004Z,18.58
